sensor_id;sensor_type;location;lat;lon;timestamp;pressure;altitude;pressure_sealevel;temperature;humidity
3250;BME280;1637;42.020;23.992;2024-01-15T00:00:13;92213.00;;;-3.57;94.97
3250;BME280;1637;42.020;23.992;2024-01-15T00:02:40;92206.00;;;-3.77;95.45
3250;BME280;1637;42.020;23.992;2024-01-15T00:05:07;92209.47;;;-3.85;96.52
3250;BME280;1637;42.020;23.992;2024-01-15T00:07:35;92203.47;;;-3.98;97.44
3250;BME280;1637;42.020;23.992;2024-01-15T00:10:02;92205.63;;;-4.12;99.88
3250;BME280;1637;42.020;23.992;2024-01-15T00:12:29;92203.38;;;-3.89;100.00
3250;BME280;1637;42.020;23.992;2024-01-15T00:14:55;92213.53;;;-3.39;99.25
3250;BME280;1637;42.020;23.992;2024-01-15T00:17:22;92217.00;;;-3.11;94.42
3250;BME280;1637;42.020;23.992;2024-01-15T00:19:49;92219.72;;;-3.07;92.75
3250;BME280;1637;42.020;23.992;2024-01-15T00:22:15;92218.31;;;-3.17;92.55
3250;BME280;1637;42.020;23.992;2024-01-15T00:24:44;92224.72;;;-3.02;92.29
3250;BME280;1637;42.020;23.992;2024-01-15T00:27:10;92224.72;;;-3.02;92.00
3250;BME280;1637;42.020;23.992;2024-01-15T00:29:37;92225.19;;;-3.24;92.42
3250;BME280;1637;42.020;23.992;2024-01-15T00:32:05;92226.19;;;-3.17;91.84
3250;BME280;1637;42.020;23.992;2024-01-15T00:34:31;92213.53;;;-3.27;91.56
3250;BME280;1637;42.020;23.992;2024-01-15T00:36:58;92224.66;;;-3.54;91.98
3250;BME280;1637;42.020;23.992;2024-01-15T00:39:26;92223.44;;;-3.69;93.76
3250;BME280;1637;42.020;23.992;2024-01-15T00:41:54;92214.94;;;-3.66;92.95
3250;BME280;1637;42.020;23.992;2024-01-15T00:44:20;92207.09;;;-3.78;94.19
3250;BME280;1637;42.020;23.992;2024-01-15T00:46:47;92200.69;;;-3.56;93.54
3250;BME280;1637;42.020;23.992;2024-01-15T00:49:15;92203.47;;;-3.73;94.01
3250;BME280;1637;42.020;23.992;2024-01-15T00:51:41;92207.94;;;-3.74;93.62
3250;BME280;1637;42.020;23.992;2024-01-15T00:54:08;92208.06;;;-3.70;94.71
3250;BME280;1637;42.020;23.992;2024-01-15T00:56:36;92204.25;;;-3.73;94.30
3250;BME280;1637;42.020;23.992;2024-01-15T00:59:04;92184.00;;;-3.76;93.53
3250;BME280;1637;42.020;23.992;2024-01-15T01:01:31;92199.66;;;-3.88;93.56
3250;BME280;1637;42.020;23.992;2024-01-15T01:03:58;92191.94;;;-3.72;93.70
3250;BME280;1637;42.020;23.992;2024-01-15T01:06:25;92198.06;;;-3.56;93.10
3250;BME280;1637;42.020;23.992;2024-01-15T01:08:51;92189.66;;;-3.50;91.95
3250;BME280;1637;42.020;23.992;2024-01-15T01:11:18;92180.06;;;-3.58;92.29
3250;BME280;1637;42.020;23.992;2024-01-15T01:13:45;92176.22;;;-3.72;92.83
3250;BME280;1637;42.020;23.992;2024-01-15T01:16:13;92133.84;;;-4.02;93.51
3250;BME280;1637;42.020;23.992;2024-01-15T01:18:40;92167.31;;;-3.84;93.80
3250;BME280;1637;42.020;23.992;2024-01-15T01:21:07;92167.03;;;-4.15;95.28
3250;BME280;1637;42.020;23.992;2024-01-15T01:23:33;92148.00;;;-4.61;93.99
3250;BME280;1637;42.020;23.992;2024-01-15T01:26:00;92179.31;;;-4.73;95.95
3250;BME280;1637;42.020;23.992;2024-01-15T01:28:27;92183.53;;;-4.80;98.33
3250;BME280;1637;42.020;23.992;2024-01-15T01:30:54;92179.97;;;-4.97;99.41
3250;BME280;1637;42.020;23.992;2024-01-15T01:33:22;92184.50;;;-5.27;100.00
3250;BME280;1637;42.020;23.992;2024-01-15T01:35:49;92177.34;;;-5.18;100.00
3250;BME280;1637;42.020;23.992;2024-01-15T01:38:16;92176.47;;;-4.47;99.80
3250;BME280;1637;42.020;23.992;2024-01-15T01:40:42;92184.16;;;-4.51;97.04
3250;BME280;1637;42.020;23.992;2024-01-15T01:43:09;92153.06;;;-4.76;98.19
3250;BME280;1637;42.020;23.992;2024-01-15T01:45:36;92169.50;;;-4.43;97.64
3250;BME280;1637;42.020;23.992;2024-01-15T01:48:07;92168.00;;;-4.32;97.14
3250;BME280;1637;42.020;23.992;2024-01-15T01:50:35;92164.03;;;-4.50;96.94
3250;BME280;1637;42.020;23.992;2024-01-15T01:53:02;92174.41;;;-4.74;97.92
3250;BME280;1637;42.020;23.992;2024-01-15T01:55:31;92169.41;;;-4.34;98.51
3250;BME280;1637;42.020;23.992;2024-01-15T01:58:00;92163.53;;;-4.31;95.62
3250;BME280;1637;42.020;23.992;2024-01-15T02:00:27;92157.66;;;-4.28;94.95
3250;BME280;1637;42.020;23.992;2024-01-15T02:02:54;92144.75;;;-4.58;96.56
3250;BME280;1637;42.020;23.992;2024-01-15T02:05:21;92117.63;;;-4.53;96.69
3250;BME280;1637;42.020;23.992;2024-01-15T02:07:50;92147.03;;;-3.99;94.62
3250;BME280;1637;42.020;23.992;2024-01-15T02:10:17;92153.56;;;-4.17;95.69
3250;BME280;1637;42.020;23.992;2024-01-15T02:12:43;92151.97;;;-4.75;96.91
3250;BME280;1637;42.020;23.992;2024-01-15T02:15:11;92151.91;;;-5.00;98.46
3250;BME280;1637;42.020;23.992;2024-01-15T02:17:59;92146.28;;;-5.10;100.00
3250;BME280;1637;42.020;23.992;2024-01-15T02:20:26;92160.81;;;-5.01;100.00
3250;BME280;1637;42.020;23.992;2024-01-15T02:23:01;92149.69;;;-4.77;98.86
3250;BME280;1637;42.020;23.992;2024-01-15T02:25:28;92138.44;;;-4.90;98.70
3250;BME280;1637;42.020;23.992;2024-01-15T02:27:55;92145.50;;;-4.90;99.21
3250;BME280;1637;42.020;23.992;2024-01-15T02:30:22;92145.47;;;-4.69;98.05
3250;BME280;1637;42.020;23.992;2024-01-15T02:32:50;92141.06;;;-4.44;97.42
3250;BME280;1637;42.020;23.992;2024-01-15T02:35:17;92123.34;;;-4.27;95.49
3250;BME280;1637;42.020;23.992;2024-01-15T02:37:44;92127.06;;;-4.28;94.45
3250;BME280;1637;42.020;23.992;2024-01-15T02:40:12;92130.97;;;-4.34;94.77
3250;BME280;1637;42.020;23.992;2024-01-15T02:42:39;92135.13;;;-4.21;93.96
3250;BME280;1637;42.020;23.992;2024-01-15T02:45:06;92132.44;;;-4.57;95.36
3250;BME280;1637;42.020;23.992;2024-01-15T02:47:33;92132.47;;;-4.78;96.13
3250;BME280;1637;42.020;23.992;2024-01-15T02:50:00;92127.06;;;-4.73;96.59
3250;BME280;1637;42.020;23.992;2024-01-15T02:52:27;92125.38;;;-4.90;96.39
3250;BME280;1637;42.020;23.992;2024-01-15T02:54:53;92129.72;;;-4.61;95.77
3250;BME280;1637;42.020;23.992;2024-01-15T02:57:21;92125.78;;;-5.00;96.87
3250;BME280;1637;42.020;23.992;2024-01-15T02:59:48;92119.16;;;-5.18;98.83
3250;BME280;1637;42.020;23.992;2024-01-15T03:02:15;92125.22;;;-5.26;100.00
3250;BME280;1637;42.020;23.992;2024-01-15T03:04:43;92136.13;;;-5.24;100.00
3250;BME280;1637;42.020;23.992;2024-01-15T03:07:09;92137.75;;;-4.66;98.82
3250;BME280;1637;42.020;23.992;2024-01-15T03:09:36;92141.06;;;-4.44;97.41
3250;BME280;1637;42.020;23.992;2024-01-15T03:12:04;92153.75;;;-4.22;96.26
3250;BME280;1637;42.020;23.992;2024-01-15T03:14:32;92141.56;;;-4.18;95.12
3250;BME280;1637;42.020;23.992;2024-01-15T03:16:59;92143.75;;;-4.20;94.80
3250;BME280;1637;42.020;23.992;2024-01-15T03:19:26;92107.16;;;-4.65;96.00
3250;BME280;1637;42.020;23.992;2024-01-15T03:21:53;92154.41;;;-4.25;95.21
3250;BME280;1637;42.020;23.992;2024-01-15T03:24:20;92139.66;;;-4.42;95.17
3250;BME280;1637;42.020;23.992;2024-01-15T03:26:47;92121.91;;;-4.48;95.29
3250;BME280;1637;42.020;23.992;2024-01-15T03:29:13;92131.50;;;-4.40;95.80
3250;BME280;1637;42.020;23.992;2024-01-15T03:31:42;92122.47;;;-4.31;95.59
3250;BME280;1637;42.020;23.992;2024-01-15T03:34:08;92132.03;;;-4.47;95.20
3250;BME280;1637;42.020;23.992;2024-01-15T03:36:35;92134.84;;;-4.52;94.71
3250;BME280;1637;42.020;23.992;2024-01-15T03:39:02;92143.25;;;-4.46;95.04
3250;BME280;1637;42.020;23.992;2024-01-15T03:41:28;92127.84;;;-4.93;97.43
3250;BME280;1637;42.020;23.992;2024-01-15T03:43:55;92128.59;;;-4.72;96.03
3250;BME280;1637;42.020;23.992;2024-01-15T03:46:23;92137.25;;;-4.59;96.29
3250;BME280;1637;42.020;23.992;2024-01-15T03:48:51;92133.97;;;-4.56;96.50
3250;BME280;1637;42.020;23.992;2024-01-15T03:51:18;92131.38;;;-4.44;95.96
3250;BME280;1637;42.020;23.992;2024-01-15T03:53:45;92133.34;;;-4.41;96.10
3250;BME280;1637;42.020;23.992;2024-01-15T03:56:12;92130.31;;;-4.43;95.95
3250;BME280;1637;42.020;23.992;2024-01-15T03:58:38;92126.88;;;-4.68;96.29
3250;BME280;1637;42.020;23.992;2024-01-15T04:01:07;92127.34;;;-4.87;97.75
3250;BME280;1637;42.020;23.992;2024-01-15T04:03:34;92120.47;;;-4.91;98.40
3250;BME280;1637;42.020;23.992;2024-01-15T04:06:03;92126.59;;;-4.87;97.81
3250;BME280;1637;42.020;23.992;2024-01-15T04:08:30;92136.97;;;-4.78;98.18
3250;BME280;1637;42.020;23.992;2024-01-15T04:10:57;92130.75;;;-4.74;98.37
3250;BME280;1637;42.020;23.992;2024-01-15T04:13:23;92121.44;;;-4.63;97.75
3250;BME280;1637;42.020;23.992;2024-01-15T04:15:50;92113.47;;;-4.78;96.82
3250;BME280;1637;42.020;23.992;2024-01-15T04:18:17;92123.88;;;-5.11;98.59
3250;BME280;1637;42.020;23.992;2024-01-15T04:20:44;92122.66;;;-5.14;100.00
3250;BME280;1637;42.020;23.992;2024-01-15T04:23:12;92120.91;;;-5.22;100.00
3250;BME280;1637;42.020;23.992;2024-01-15T04:25:39;92107.78;;;-5.34;100.00
3250;BME280;1637;42.020;23.992;2024-01-15T04:28:08;92110.78;;;-5.24;100.00
3250;BME280;1637;42.020;23.992;2024-01-15T04:30:35;92112.13;;;-4.85;98.56
3250;BME280;1637;42.020;23.992;2024-01-15T04:33:02;92106.72;;;-4.79;96.49
3250;BME280;1637;42.020;23.992;2024-01-15T04:35:30;92104.34;;;-4.93;96.17
3250;BME280;1637;42.020;23.992;2024-01-15T04:37:56;92106.66;;;-4.92;95.23
3250;BME280;1637;42.020;23.992;2024-01-15T04:40:25;92063.94;;;-5.20;95.80
3250;BME280;1637;42.020;23.992;2024-01-15T04:42:53;92077.03;;;-4.96;95.46
3250;BME280;1637;42.020;23.992;2024-01-15T04:45:19;92091.34;;;-4.81;94.41
3250;BME280;1637;42.020;23.992;2024-01-15T04:47:48;92086.53;;;-5.24;95.42
3250;BME280;1637;42.020;23.992;2024-01-15T04:50:15;92088.06;;;-5.23;98.17
3250;BME280;1637;42.020;23.992;2024-01-15T04:52:42;92087.94;;;-4.94;95.84
3250;BME280;1637;42.020;23.992;2024-01-15T04:55:09;92089.34;;;-4.96;94.26
3250;BME280;1637;42.020;23.992;2024-01-15T04:57:37;92095.00;;;-4.94;94.50
3250;BME280;1637;42.020;23.992;2024-01-15T05:00:04;92081.28;;;-5.03;93.17
3250;BME280;1637;42.020;23.992;2024-01-15T05:02:31;92099.50;;;-5.36;93.20
3250;BME280;1637;42.020;23.992;2024-01-15T05:04:58;92089.84;;;-5.36;94.75
3250;BME280;1637;42.020;23.992;2024-01-15T05:07:25;92093.06;;;-5.18;95.80
3250;BME280;1637;42.020;23.992;2024-01-15T05:09:51;92094.50;;;-5.41;95.46
3250;BME280;1637;42.020;23.992;2024-01-15T05:12:18;92079.25;;;-5.39;95.24
3250;BME280;1637;42.020;23.992;2024-01-15T05:14:46;92071.63;;;-5.24;95.18
3250;BME280;1637;42.020;23.992;2024-01-15T05:17:13;92068.19;;;-5.57;96.18
3250;BME280;1637;42.020;23.992;2024-01-15T05:19:40;92079.03;;;-5.46;95.38
3250;BME280;1637;42.020;23.992;2024-01-15T05:22:06;92088.31;;;-5.58;95.69
3250;BME280;1637;42.020;23.992;2024-01-15T05:24:33;92082.63;;;-5.80;96.03
3250;BME280;1637;42.020;23.992;2024-01-15T05:27:00;92079.53;;;-5.74;97.08
3250;BME280;1637;42.020;23.992;2024-01-15T05:29:27;92077.75;;;-6.03;98.10
3250;BME280;1637;42.020;23.992;2024-01-15T05:31:55;92077.88;;;-5.78;99.04
3250;BME280;1637;42.020;23.992;2024-01-15T05:34:21;92076.16;;;-5.54;98.13
3250;BME280;1637;42.020;23.992;2024-01-15T05:36:48;92068.06;;;-5.61;97.67
3250;BME280;1637;42.020;23.992;2024-01-15T05:39:15;92073.88;;;-5.55;98.26
3250;BME280;1637;42.020;23.992;2024-01-15T05:41:42;92077.69;;;-5.53;97.77
3250;BME280;1637;42.020;23.992;2024-01-15T05:44:08;92071.88;;;-6.00;98.86
3250;BME280;1637;42.020;23.992;2024-01-15T05:46:36;92069.28;;;-5.79;99.51
3250;BME280;1637;42.020;23.992;2024-01-15T05:49:04;92058.38;;;-5.93;100.00
3250;BME280;1637;42.020;23.992;2024-01-15T05:51:30;92061.22;;;-5.86;100.00
3250;BME280;1637;42.020;23.992;2024-01-15T05:53:58;92051.31;;;-5.93;100.00
3250;BME280;1637;42.020;23.992;2024-01-15T05:56:24;92067.44;;;-5.99;100.00
3250;BME280;1637;42.020;23.992;2024-01-15T05:58:51;92058.50;;;-6.19;100.00
3250;BME280;1637;42.020;23.992;2024-01-15T06:01:18;92058.44;;;-6.31;100.00
3250;BME280;1637;42.020;23.992;2024-01-15T06:03:45;92070.84;;;-6.28;100.00
3250;BME280;1637;42.020;23.992;2024-01-15T06:06:13;92068.28;;;-5.66;100.00
3250;BME280;1637;42.020;23.992;2024-01-15T06:08:40;92049.50;;;-5.80;100.00
3250;BME280;1637;42.020;23.992;2024-01-15T06:11:06;92023.84;;;-5.90;100.00
3250;BME280;1637;42.020;23.992;2024-01-15T06:13:33;92072.28;;;-4.00;100.00
3250;BME280;1637;42.020;23.992;2024-01-15T06:16:00;92071.59;;;-4.45;100.00
3250;BME280;1637;42.020;23.992;2024-01-15T06:18:27;92062.44;;;-4.64;98.27
3250;BME280;1637;42.020;23.992;2024-01-15T06:20:53;92081.19;;;-4.50;96.79
3250;BME280;1637;42.020;23.992;2024-01-15T06:23:22;92056.88;;;-4.50;96.11
3250;BME280;1637;42.020;23.992;2024-01-15T06:25:48;92045.59;;;-4.42;95.28
3250;BME280;1637;42.020;23.992;2024-01-15T06:28:15;92044.16;;;-4.27;95.68
3250;BME280;1637;42.020;23.992;2024-01-15T06:30:42;92052.00;;;-4.15;94.32
3250;BME280;1637;42.020;23.992;2024-01-15T06:33:09;92069.53;;;-4.16;93.96
3250;BME280;1637;42.020;23.992;2024-01-15T06:35:35;92068.03;;;-4.04;93.83
3250;BME280;1637;42.020;23.992;2024-01-15T06:38:02;92077.06;;;-4.26;93.48
3250;BME280;1637;42.020;23.992;2024-01-15T06:40:30;92074.78;;;-4.03;93.09
3250;BME280;1637;42.020;23.992;2024-01-15T06:42:57;92075.75;;;-4.08;93.61
3250;BME280;1637;42.020;23.992;2024-01-15T06:45:24;92064.19;;;-4.31;93.63
3250;BME280;1637;42.020;23.992;2024-01-15T06:47:51;92058.63;;;-4.54;95.35
3250;BME280;1637;42.020;23.992;2024-01-15T06:50:18;92051.78;;;-4.46;96.26
3250;BME280;1637;42.020;23.992;2024-01-15T06:52:44;92054.72;;;-4.36;96.96
3250;BME280;1637;42.020;23.992;2024-01-15T06:55:11;92012.03;;;-4.52;96.08
3250;BME280;1637;42.020;23.992;2024-01-15T06:57:39;92048.84;;;-4.08;96.79
3250;BME280;1637;42.020;23.992;2024-01-15T07:00:07;92043.81;;;-3.89;94.58
3250;BME280;1637;42.020;23.992;2024-01-15T07:02:34;92047.91;;;-3.64;95.49
3250;BME280;1637;42.020;23.992;2024-01-15T07:05:01;92054.28;;;-4.01;94.56
3250;BME280;1637;42.020;23.992;2024-01-15T07:07:30;92052.22;;;-3.96;94.80
3250;BME280;1637;42.020;23.992;2024-01-15T07:09:57;92051.09;;;-3.83;94.81
3250;BME280;1637;42.020;23.992;2024-01-15T07:12:24;92046.38;;;-3.65;94.23
3250;BME280;1637;42.020;23.992;2024-01-15T07:14:52;92044.69;;;-3.33;92.08
3250;BME280;1637;42.020;23.992;2024-01-15T07:17:18;92056.09;;;-2.97;91.89
3250;BME280;1637;42.020;23.992;2024-01-15T07:19:46;92063.91;;;-1.75;86.94
3250;BME280;1637;42.020;23.992;2024-01-15T07:22:12;92064.19;;;0.00;79.02
3250;BME280;1637;42.020;23.992;2024-01-15T07:24:40;92061.25;;;1.52;72.49
3250;BME280;1637;42.020;23.992;2024-01-15T07:27:07;92065.97;;;2.13;68.31
3250;BME280;1637;42.020;23.992;2024-01-15T07:29:34;92065.50;;;3.21;66.42
3250;BME280;1637;42.020;23.992;2024-01-15T07:32:04;92071.00;;;2.29;65.78
3250;BME280;1637;42.020;23.992;2024-01-15T07:34:33;92033.53;;;0.12;71.05
3250;BME280;1637;42.020;23.992;2024-01-15T07:36:59;92072.63;;;-0.36;74.06
3250;BME280;1637;42.020;23.992;2024-01-15T07:39:26;92059.63;;;-1.29;78.19
3250;BME280;1637;42.020;23.992;2024-01-15T07:41:54;92060.81;;;-1.46;80.80
3250;BME280;1637;42.020;23.992;2024-01-15T07:44:21;92047.25;;;-1.48;81.73
3250;BME280;1637;42.020;23.992;2024-01-15T07:46:48;92044.06;;;-1.38;81.72
3250;BME280;1637;42.020;23.992;2024-01-15T07:49:16;92058.19;;;-1.46;82.24
3250;BME280;1637;42.020;23.992;2024-01-15T07:51:43;92036.84;;;-1.60;84.40
3250;BME280;1637;42.020;23.992;2024-01-15T07:54:10;92049.47;;;-1.30;83.44
3250;BME280;1637;42.020;23.992;2024-01-15T07:56:55;92043.84;;;-1.67;83.78
3250;BME280;1637;42.020;23.992;2024-01-15T07:59:22;92053.72;;;-1.61;84.90
3250;BME280;1637;42.020;23.992;2024-01-15T08:01:49;92050.97;;;-1.49;84.35
3250;BME280;1637;42.020;23.992;2024-01-15T08:04:17;92039.72;;;-1.49;84.62
3250;BME280;1637;42.020;23.992;2024-01-15T08:06:44;92050.22;;;-1.49;84.66
3250;BME280;1637;42.020;23.992;2024-01-15T08:09:11;92042.81;;;-1.44;84.86
3250;BME280;1637;42.020;23.992;2024-01-15T08:11:39;92047.47;;;-1.37;84.95
3250;BME280;1637;42.020;23.992;2024-01-15T08:14:07;92040.06;;;-1.12;86.44
3250;BME280;1637;42.020;23.992;2024-01-15T08:16:34;92036.13;;;-1.22;86.34
3250;BME280;1637;42.020;23.992;2024-01-15T08:19:00;92034.25;;;-1.21;84.76
3250;BME280;1637;42.020;23.992;2024-01-15T08:21:29;92048.09;;;-1.05;84.18
3250;BME280;1637;42.020;23.992;2024-01-15T08:23:57;92033.72;;;-1.30;84.77
3250;BME280;1637;42.020;23.992;2024-01-15T08:26:24;92040.00;;;-1.16;85.63
3250;BME280;1637;42.020;23.992;2024-01-15T08:28:51;92022.59;;;-0.82;84.08
3250;BME280;1637;42.020;23.992;2024-01-15T08:31:17;92030.91;;;-0.80;83.32
3250;BME280;1637;42.020;23.992;2024-01-15T08:33:44;92026.75;;;-0.81;84.25
3250;BME280;1637;42.020;23.992;2024-01-15T08:36:11;92028.59;;;-0.62;84.96
3250;BME280;1637;42.020;23.992;2024-01-15T08:38:39;92019.66;;;-0.57;83.22
3250;BME280;1637;42.020;23.992;2024-01-15T08:41:06;92013.16;;;-0.41;82.18
3250;BME280;1637;42.020;23.992;2024-01-15T08:43:33;92001.94;;;-0.60;82.59
3250;BME280;1637;42.020;23.992;2024-01-15T08:46:00;92003.41;;;-0.40;82.03
3250;BME280;1637;42.020;23.992;2024-01-15T08:48:28;92002.94;;;-0.23;81.97
3250;BME280;1637;42.020;23.992;2024-01-15T08:50:54;92001.25;;;0.15;79.90
3250;BME280;1637;42.020;23.992;2024-01-15T08:53:22;92006.34;;;0.90;78.52
3250;BME280;1637;42.020;23.992;2024-01-15T08:55:50;92020.19;;;1.95;73.40
3250;BME280;1637;42.020;23.992;2024-01-15T08:58:17;92024.56;;;2.24;72.06
3250;BME280;1637;42.020;23.992;2024-01-15T09:00:44;92020.78;;;2.87;69.60
3250;BME280;1637;42.020;23.992;2024-01-15T09:03:11;92023.69;;;4.01;66.67
3250;BME280;1637;42.020;23.992;2024-01-15T09:05:37;92003.59;;;3.57;66.23
3250;BME280;1637;42.020;23.992;2024-01-15T09:08:06;91996.53;;;2.74;68.37
3250;BME280;1637;42.020;23.992;2024-01-15T09:10:33;91995.13;;;2.29;70.40
3250;BME280;1637;42.020;23.992;2024-01-15T09:13:01;91998.19;;;3.11;69.84
3250;BME280;1637;42.020;23.992;2024-01-15T09:15:29;91996.44;;;3.79;66.36
3250;BME280;1637;42.020;23.992;2024-01-15T09:17:56;91986.19;;;4.38;65.67
3250;BME280;1637;42.020;23.992;2024-01-15T09:20:24;91976.38;;;4.28;65.33
3250;BME280;1637;42.020;23.992;2024-01-15T09:22:52;91967.66;;;3.95;65.53
3250;BME280;1637;42.020;23.992;2024-01-15T09:25:19;91961.94;;;3.22;67.23
3250;BME280;1637;42.020;23.992;2024-01-15T09:27:46;91955.84;;;3.07;67.68
3250;BME280;1637;42.020;23.992;2024-01-15T09:30:15;91945.97;;;2.87;68.41
3250;BME280;1637;42.020;23.992;2024-01-15T09:32:42;91944.03;;;2.69;69.19
3250;BME280;1637;42.020;23.992;2024-01-15T09:35:09;91945.88;;;2.62;70.46
3250;BME280;1637;42.020;23.992;2024-01-15T09:37:36;91927.84;;;2.96;69.12
3250;BME280;1637;42.020;23.992;2024-01-15T09:40:04;91918.13;;;3.46;68.23
3250;BME280;1637;42.020;23.992;2024-01-15T09:42:32;91931.78;;;5.10;64.37
3250;BME280;1637;42.020;23.992;2024-01-15T09:44:59;91925.13;;;4.73;64.69
3250;BME280;1637;42.020;23.992;2024-01-15T09:47:28;91933.03;;;5.57;62.57
3250;BME280;1637;42.020;23.992;2024-01-15T09:49:54;91928.19;;;5.41;63.28
3250;BME280;1637;42.020;23.992;2024-01-15T09:52:24;91921.25;;;6.10;62.09
3250;BME280;1637;42.020;23.992;2024-01-15T09:54:52;91902.53;;;6.62;59.43
3250;BME280;1637;42.020;23.992;2024-01-15T09:57:18;91895.31;;;7.23;59.06
3250;BME280;1637;42.020;23.992;2024-01-15T09:59:46;91896.72;;;6.70;60.31
3250;BME280;1637;42.020;23.992;2024-01-15T10:02:14;91891.16;;;7.72;58.29
3250;BME280;1637;42.020;23.992;2024-01-15T10:04:46;91894.88;;;7.78;58.90
3250;BME280;1637;42.020;23.992;2024-01-15T10:07:15;91880.22;;;8.37;56.64
3250;BME280;1637;42.020;23.992;2024-01-15T10:09:44;91882.59;;;8.31;56.95
3250;BME280;1637;42.020;23.992;2024-01-15T10:12:12;91866.66;;;7.57;59.17
3250;BME280;1637;42.020;23.992;2024-01-15T10:14:40;91857.28;;;7.22;61.04
3250;BME280;1637;42.020;23.992;2024-01-15T10:17:14;91863.63;;;7.55;58.20
3250;BME280;1637;42.020;23.992;2024-01-15T10:19:41;91832.81;;;7.04;60.22
3250;BME280;1637;42.020;23.992;2024-01-15T10:22:09;91842.84;;;7.20;59.32
3250;BME280;1637;42.020;23.992;2024-01-15T10:24:36;91836.50;;;7.37;58.52
3250;BME280;1637;42.020;23.992;2024-01-15T10:27:06;91806.81;;;7.12;61.12
3250;BME280;1637;42.020;23.992;2024-01-15T10:29:34;91831.97;;;6.80;62.03
3250;BME280;1637;42.020;23.992;2024-01-15T10:32:02;91823.28;;;6.08;65.84
3250;BME280;1637;42.020;23.992;2024-01-15T10:34:30;91826.94;;;6.86;64.57
3250;BME280;1637;42.020;23.992;2024-01-15T10:36:57;91816.22;;;7.20;62.34
3250;BME280;1637;42.020;23.992;2024-01-15T10:39:25;91819.63;;;6.94;63.80
3250;BME280;1637;42.020;23.992;2024-01-15T10:41:52;91809.56;;;7.32;62.62
3250;BME280;1637;42.020;23.992;2024-01-15T10:44:18;91796.09;;;5.97;64.80
3250;BME280;1637;42.020;23.992;2024-01-15T10:46:45;91798.41;;;6.86;64.32
3250;BME280;1637;42.020;23.992;2024-01-15T10:49:12;91792.78;;;7.35;62.70
3250;BME280;1637;42.020;23.992;2024-01-15T10:51:39;91787.66;;;7.90;60.47
3250;BME280;1637;42.020;23.992;2024-01-15T10:54:09;91785.84;;;7.64;60.46
3250;BME280;1637;42.020;23.992;2024-01-15T10:56:39;91792.44;;;7.79;59.21
3250;BME280;1637;42.020;23.992;2024-01-15T10:59:06;91790.38;;;7.67;58.65
3250;BME280;1637;42.020;23.992;2024-01-15T11:01:36;91782.28;;;7.71;58.56
3250;BME280;1637;42.020;23.992;2024-01-15T11:04:03;91770.59;;;6.91;60.84
3250;BME280;1637;42.020;23.992;2024-01-15T11:06:41;91764.06;;;6.08;63.23
3250;BME280;1637;42.020;23.992;2024-01-15T11:09:09;91760.91;;;7.04;61.26
3250;BME280;1637;42.020;23.992;2024-01-15T11:11:36;91732.97;;;7.39;60.22
3250;BME280;1637;42.020;23.992;2024-01-15T11:14:04;91767.53;;;8.09;57.94
3250;BME280;1637;42.020;23.992;2024-01-15T11:16:56;91754.28;;;8.25;56.59
3250;BME280;1637;42.020;23.992;2024-01-15T11:19:24;91751.72;;;8.18;57.50
3250;BME280;1637;42.020;23.992;2024-01-15T11:21:51;91747.91;;;8.19;57.72
3250;BME280;1637;42.020;23.992;2024-01-15T11:24:33;91741.28;;;8.27;57.79
3250;BME280;1637;42.020;23.992;2024-01-15T11:27:01;91741.84;;;8.39;58.26
3250;BME280;1637;42.020;23.992;2024-01-15T11:29:33;91734.63;;;8.16;58.47
3250;BME280;1637;42.020;23.992;2024-01-15T11:32:09;91726.81;;;8.65;58.88
3250;BME280;1637;42.020;23.992;2024-01-15T11:34:56;91728.13;;;8.92;58.68
3250;BME280;1637;42.020;23.992;2024-01-15T11:37:25;91726.63;;;9.08;60.17
3250;BME280;1637;42.020;23.992;2024-01-15T11:39:53;91728.06;;;9.12;61.62
3250;BME280;1637;42.020;23.992;2024-01-15T11:42:21;91725.25;;;9.64;60.44
3250;BME280;1637;42.020;23.992;2024-01-15T11:44:49;91714.19;;;9.79;60.16
3250;BME280;1637;42.020;23.992;2024-01-15T11:47:31;91701.09;;;9.68;60.45
3250;BME280;1637;42.020;23.992;2024-01-15T11:50:04;91707.22;;;9.69;60.25
3250;BME280;1637;42.020;23.992;2024-01-15T11:52:33;91715.91;;;9.40;61.31
3250;BME280;1637;42.020;23.992;2024-01-15T11:55:22;91713.34;;;9.20;61.66
3250;BME280;1637;42.020;23.992;2024-01-15T11:57:52;91715.09;;;9.43;60.94
3250;BME280;1637;42.020;23.992;2024-01-15T12:00:22;91718.84;;;9.46;61.28
3250;BME280;1637;42.020;23.992;2024-01-15T12:02:49;91720.28;;;9.50;60.79
3250;BME280;1637;42.020;23.992;2024-01-15T12:05:19;91709.34;;;9.12;62.29
3250;BME280;1637;42.020;23.992;2024-01-15T12:07:47;91722.03;;;9.24;63.55
3250;BME280;1637;42.020;23.992;2024-01-15T12:10:15;91729.44;;;8.84;62.68
3250;BME280;1637;42.020;23.992;2024-01-15T12:12:50;91718.13;;;8.60;62.56
3250;BME280;1637;42.020;23.992;2024-01-15T12:15:22;91727.03;;;8.90;62.51
3250;BME280;1637;42.020;23.992;2024-01-15T12:17:50;91721.75;;;8.70;62.33
3250;BME280;1637;42.020;23.992;2024-01-15T12:20:17;91690.50;;;8.11;62.17
3250;BME280;1637;42.020;23.992;2024-01-15T12:22:44;91715.16;;;8.39;62.48
3250;BME280;1637;42.020;23.992;2024-01-15T12:25:11;91720.56;;;8.35;62.16
3250;BME280;1637;42.020;23.992;2024-01-15T12:27:38;91712.44;;;8.58;61.35
3250;BME280;1637;42.020;23.992;2024-01-15T12:30:06;91708.22;;;8.77;61.21
3250;BME280;1637;42.020;23.992;2024-01-15T12:32:35;91696.44;;;8.58;60.94
3250;BME280;1637;42.020;23.992;2024-01-15T12:35:03;91706.59;;;8.27;62.06
3250;BME280;1637;42.020;23.992;2024-01-15T12:37:30;91705.91;;;8.43;61.91
3250;BME280;1637;42.020;23.992;2024-01-15T12:39:58;91684.94;;;8.06;61.71
3250;BME280;1637;42.020;23.992;2024-01-15T12:42:25;91702.09;;;8.24;62.70
3250;BME280;1637;42.020;23.992;2024-01-15T12:44:52;91703.44;;;8.33;62.11
3250;BME280;1637;42.020;23.992;2024-01-15T12:47:21;91696.13;;;8.37;61.72
3250;BME280;1637;42.020;23.992;2024-01-15T12:49:51;91705.38;;;8.52;61.94
3250;BME280;1637;42.020;23.992;2024-01-15T12:52:19;91694.38;;;8.66;61.19
3250;BME280;1637;42.020;23.992;2024-01-15T12:54:46;91685.56;;;9.02;59.60
3250;BME280;1637;42.020;23.992;2024-01-15T12:57:13;91681.31;;;8.88;59.06
3250;BME280;1637;42.020;23.992;2024-01-15T12:59:40;91687.53;;;8.98;59.26
3250;BME280;1637;42.020;23.992;2024-01-15T13:02:07;91673.19;;;8.75;58.94
3250;BME280;1637;42.020;23.992;2024-01-15T13:04:34;91671.78;;;8.71;59.57
3250;BME280;1637;42.020;23.992;2024-01-15T13:07:02;91666.50;;;8.51;60.68
3250;BME280;1637;42.020;23.992;2024-01-15T13:09:29;91665.06;;;8.46;60.47
3250;BME280;1637;42.020;23.992;2024-01-15T13:11:55;91676.56;;;8.43;60.90
3250;BME280;1637;42.020;23.992;2024-01-15T13:14:22;91673.00;;;8.30;60.93
3250;BME280;1637;42.020;23.992;2024-01-15T13:16:49;91672.06;;;8.20;62.04